sensor_id;sensor_type;location;lat;lon;timestamp;pressure;altitude;pressure_sealevel;temperature;humidity
54936;BME280;40838;50.676;7.838;2022-12-17T00:00:02;98841.66;;;-10.33;100.00
54936;BME280;40838;50.676;7.838;2022-12-17T00:02:47;98842.41;;;-10.18;100.00
54936;BME280;40838;50.676;7.838;2022-12-17T00:05:31;98844.06;;;-10.17;100.00
54936;BME280;40838;50.676;7.838;2022-12-17T00:08:17;98847.97;;;-10.11;100.00
54936;BME280;40838;50.676;7.838;2022-12-17T00:11:01;98848.44;;;-10.19;100.00
54936;BME280;40838;50.676;7.838;2022-12-17T00:13:46;98857.84;;;-10.19;100.00
54936;BME280;40838;50.676;7.838;2022-12-17T00:16:36;98855.53;;;-10.10;100.00
54936;BME280;40838;50.676;7.838;2022-12-17T00:19:20;98864.38;;;-10.15;100.00
54936;BME280;40838;50.676;7.838;2022-12-17T00:22:04;98866.09;;;-10.29;100.00
54936;BME280;40838;50.676;7.838;2022-12-17T00:24:50;98854.41;;;-10.33;100.00
54936;BME280;40838;50.676;7.838;2022-12-17T00:27:34;98856.59;;;-10.27;100.00
54936;BME280;40838;50.676;7.838;2022-12-17T00:30:19;98860.16;;;-10.29;100.00
54936;BME280;40838;50.676;7.838;2022-12-17T00:33:03;98859.25;;;-10.28;100.00
54936;BME280;40838;50.676;7.838;2022-12-17T00:35:50;98870.38;;;-10.29;100.00
54936;BME280;40838;50.676;7.838;2022-12-17T00:38:34;98876.81;;;-10.23;100.00
54936;BME280;40838;50.676;7.838;2022-12-17T00:41:20;98886.59;;;-10.30;100.00
54936;BME280;40838;50.676;7.838;2022-12-17T00:44:05;98882.28;;;-10.30;100.00
54936;BME280;40838;50.676;7.838;2022-12-17T00:46:49;98878.69;;;-10.40;100.00
54936;BME280;40838;50.676;7.838;2022-12-17T00:49:34;98885.59;;;-10.42;100.00
54936;BME280;40838;50.676;7.838;2022-12-17T00:52:18;98883.22;;;-10.45;100.00
54936;BME280;40838;50.676;7.838;2022-12-17T00:55:03;98875.38;;;-10.42;100.00
54936;BME280;40838;50.676;7.838;2022-12-17T00:57:52;98889.25;;;-10.32;100.00
54936;BME280;40838;50.676;7.838;2022-12-17T01:00:36;98896.31;;;-10.22;100.00
54936;BME280;40838;50.676;7.838;2022-12-17T01:03:21;98899.41;;;-10.17;100.00
54936;BME280;40838;50.676;7.838;2022-12-17T01:06:06;98908.69;;;-10.16;100.00
54936;BME280;40838;50.676;7.838;2022-12-17T01:08:54;98907.59;;;-10.12;100.00
54936;BME280;40838;50.676;7.838;2022-12-17T01:11:39;98908.06;;;-10.06;100.00
54936;BME280;40838;50.676;7.838;2022-12-17T01:14:25;98907.59;;;-10.12;100.00
54936;BME280;40838;50.676;7.838;2022-12-17T01:17:10;98900.03;;;-10.14;100.00
54936;BME280;40838;50.676;7.838;2022-12-17T01:19:54;98896.38;;;-10.10;100.00
54936;BME280;40838;50.676;7.838;2022-12-17T01:22:39;98893.13;;;-10.12;100.00
54936;BME280;40838;50.676;7.838;2022-12-17T01:25:23;98906.72;;;-9.84;100.00
54936;BME280;40838;50.676;7.838;2022-12-17T01:28:10;98915.25;;;-10.12;100.00
54936;BME280;40838;50.676;7.838;2022-12-17T01:30:56;98915.44;;;-10.15;100.00
54936;BME280;40838;50.676;7.838;2022-12-17T01:33:41;98917.13;;;-10.29;100.00
54936;BME280;40838;50.676;7.838;2022-12-17T01:36:25;98913.09;;;-10.33;100.00
54936;BME280;40838;50.676;7.838;2022-12-17T01:39:09;98918.38;;;-10.36;100.00
54936;BME280;40838;50.676;7.838;2022-12-17T01:41:54;98928.69;;;-10.52;100.00
54936;BME280;40838;50.676;7.838;2022-12-17T01:44:49;98925.69;;;-10.73;100.00
54936;BME280;40838;50.676;7.838;2022-12-17T01:47:37;98939.91;;;-10.99;100.00
54936;BME280;40838;50.676;7.838;2022-12-17T01:50:31;98943.84;;;-10.93;100.00
54936;BME280;40838;50.676;7.838;2022-12-17T01:53:21;98938.66;;;-10.91;100.00
54936;BME280;40838;50.676;7.838;2022-12-17T01:56:08;98940.78;;;-11.14;100.00
54936;BME280;40838;50.676;7.838;2022-12-17T01:58:53;98946.19;;;-11.04;100.00
54936;BME280;40838;50.676;7.838;2022-12-17T02:01:38;98948.97;;;-11.09;100.00
54936;BME280;40838;50.676;7.838;2022-12-17T02:04:27;98947.41;;;-11.11;100.00
54936;BME280;40838;50.676;7.838;2022-12-17T02:07:19;98935.94;;;-11.19;100.00
54936;BME280;40838;50.676;7.838;2022-12-17T02:10:18;98945.72;;;-11.11;100.00
54936;BME280;40838;50.676;7.838;2022-12-17T02:13:11;98947.75;;;-11.18;100.00
54936;BME280;40838;50.676;7.838;2022-12-17T02:16:07;98953.72;;;-11.17;100.00
54936;BME280;40838;50.676;7.838;2022-12-17T02:19:05;98943.59;;;-11.19;100.00
54936;BME280;40838;50.676;7.838;2022-12-17T02:22:00;98942.94;;;-11.22;100.00
54936;BME280;40838;50.676;7.838;2022-12-17T02:24:54;98941.97;;;-11.35;100.00
54936;BME280;40838;50.676;7.838;2022-12-17T02:27:42;98950.75;;;-11.41;100.00
54936;BME280;40838;50.676;7.838;2022-12-17T02:30:28;98952.03;;;-11.48;100.00
54936;BME280;40838;50.676;7.838;2022-12-17T02:33:14;98950.38;;;-11.49;100.00
54936;BME280;40838;50.676;7.838;2022-12-17T02:36:03;98958.50;;;-11.58;100.00
54936;BME280;40838;50.676;7.838;2022-12-17T02:38:48;98954.56;;;-11.80;100.00
54936;BME280;40838;50.676;7.838;2022-12-17T02:41:40;98952.13;;;-11.97;100.00
54936;BME280;40838;50.676;7.838;2022-12-17T02:44:29;98958.03;;;-12.13;100.00
54936;BME280;40838;50.676;7.838;2022-12-17T02:47:15;98957.97;;;-11.95;100.00
54936;BME280;40838;50.676;7.838;2022-12-17T02:50:01;98956.91;;;-11.91;100.00
54936;BME280;40838;50.676;7.838;2022-12-17T02:52:47;98956.25;;;-11.95;100.00
54936;BME280;40838;50.676;7.838;2022-12-17T02:55:32;98972.50;;;-11.97;100.00
54936;BME280;40838;50.676;7.838;2022-12-17T02:58:17;98971.72;;;-12.15;100.00
54936;BME280;40838;50.676;7.838;2022-12-17T03:01:02;98986.06;;;-12.30;100.00
54936;BME280;40838;50.676;7.838;2022-12-17T03:03:47;98980.19;;;-12.15;100.00
54936;BME280;40838;50.676;7.838;2022-12-17T03:06:31;98981.72;;;-12.28;100.00
54936;BME280;40838;50.676;7.838;2022-12-17T03:09:15;98972.97;;;-12.22;100.00
54936;BME280;40838;50.676;7.838;2022-12-17T03:12:00;98986.41;;;-12.20;100.00
54936;BME280;40838;50.676;7.838;2022-12-17T03:14:44;98980.16;;;-12.30;100.00
54936;BME280;40838;50.676;7.838;2022-12-17T03:17:30;98976.03;;;-12.33;100.00
54936;BME280;40838;50.676;7.838;2022-12-17T03:20:14;98985.91;;;-12.27;100.00
54936;BME280;40838;50.676;7.838;2022-12-17T03:23:02;98990.50;;;-12.34;100.00
54936;BME280;40838;50.676;7.838;2022-12-17T03:25:47;98986.44;;;-12.38;100.00
54936;BME280;40838;50.676;7.838;2022-12-17T03:28:31;98978.44;;;-12.30;100.00
54936;BME280;40838;50.676;7.838;2022-12-17T03:31:24;98988.81;;;-12.35;100.00
54936;BME280;40838;50.676;7.838;2022-12-17T03:34:09;98985.56;;;-12.37;100.00
54936;BME280;40838;50.676;7.838;2022-12-17T03:36:54;98990.09;;;-12.43;100.00
54936;BME280;40838;50.676;7.838;2022-12-17T03:39:38;98990.16;;;-12.27;100.00
54936;BME280;40838;50.676;7.838;2022-12-17T03:42:23;98992.41;;;-12.21;100.00
54936;BME280;40838;50.676;7.838;2022-12-17T03:45:08;98994.91;;;-12.04;100.00
54936;BME280;40838;50.676;7.838;2022-12-17T03:48:03;98989.75;;;-11.86;100.00
54936;BME280;40838;50.676;7.838;2022-12-17T03:50:50;98991.28;;;-11.84;100.00
54936;BME280;40838;50.676;7.838;2022-12-17T03:53:35;98989.56;;;-11.83;100.00
54936;BME280;40838;50.676;7.838;2022-12-17T03:56:19;98994.66;;;-11.83;100.00
54936;BME280;40838;50.676;7.838;2022-12-17T03:59:06;98984.53;;;-11.53;100.00
54936;BME280;40838;50.676;7.838;2022-12-17T04:01:50;98978.31;;;-11.48;100.00
54936;BME280;40838;50.676;7.838;2022-12-17T04:04:37;98977.91;;;-11.40;100.00
54936;BME280;40838;50.676;7.838;2022-12-17T04:07:22;98961.78;;;-11.56;100.00
54936;BME280;40838;50.676;7.838;2022-12-17T04:10:08;98978.41;;;-11.49;100.00
54936;BME280;40838;50.676;7.838;2022-12-17T04:12:52;98974.19;;;-11.34;100.00
54936;BME280;40838;50.676;7.838;2022-12-17T04:15:37;98976.38;;;-11.12;100.00
54936;BME280;40838;50.676;7.838;2022-12-17T04:18:21;98984.41;;;-11.04;100.00
54936;BME280;40838;50.676;7.838;2022-12-17T04:21:06;98994.19;;;-10.97;100.00
54936;BME280;40838;50.676;7.838;2022-12-17T04:23:52;98992.53;;;-10.67;100.00
54936;BME280;40838;50.676;7.838;2022-12-17T04:26:36;98996.53;;;-10.63;100.00
54936;BME280;40838;50.676;7.838;2022-12-17T04:29:36;99005.13;;;-10.50;100.00
54936;BME280;40838;50.676;7.838;2022-12-17T04:32:20;99009.03;;;-10.44;100.00
54936;BME280;40838;50.676;7.838;2022-12-17T04:35:05;99005.81;;;-10.62;100.00
54936;BME280;40838;50.676;7.838;2022-12-17T04:37:49;99015.50;;;-10.53;100.00
54936;BME280;40838;50.676;7.838;2022-12-17T04:40:35;99021.88;;;-10.60;100.00
54936;BME280;40838;50.676;7.838;2022-12-17T04:43:19;99016.22;;;-10.65;100.00
54936;BME280;40838;50.676;7.838;2022-12-17T04:46:08;99019.59;;;-10.51;100.00
54936;BME280;40838;50.676;7.838;2022-12-17T04:48:53;99025.44;;;-10.48;100.00
54936;BME280;40838;50.676;7.838;2022-12-17T04:51:37;99031.69;;;-10.68;100.00
54936;BME280;40838;50.676;7.838;2022-12-17T04:54:22;99026.59;;;-10.68;100.00
54936;BME280;40838;50.676;7.838;2022-12-17T04:57:06;99031.84;;;-10.56;100.00
54936;BME280;40838;50.676;7.838;2022-12-17T04:59:51;99035.59;;;-10.47;100.00
54936;BME280;40838;50.676;7.838;2022-12-17T05:02:35;99035.72;;;-10.50;100.00
54936;BME280;40838;50.676;7.838;2022-12-17T05:05:19;99040.97;;;-10.37;100.00
54936;BME280;40838;50.676;7.838;2022-12-17T05:08:04;99029.09;;;-10.24;100.00
54936;BME280;40838;50.676;7.838;2022-12-17T05:10:44;99030.13;;;-10.27;100.00
54936;BME280;40838;50.676;7.838;2022-12-17T05:13:30;99033.78;;;-10.31;100.00
54936;BME280;40838;50.676;7.838;2022-12-17T05:16:14;99034.13;;;-10.22;100.00
54936;BME280;40838;50.676;7.838;2022-12-17T05:18:58;99042.16;;;-10.14;100.00
54936;BME280;40838;50.676;7.838;2022-12-17T05:21:42;99050.53;;;-10.12;100.00
54936;BME280;40838;50.676;7.838;2022-12-17T05:24:26;99047.28;;;-10.29;100.00
54936;BME280;40838;50.676;7.838;2022-12-17T05:27:10;99055.47;;;-9.95;100.00
54936;BME280;40838;50.676;7.838;2022-12-17T05:29:56;99056.13;;;-9.91;100.00
54936;BME280;40838;50.676;7.838;2022-12-17T05:32:58;99047.28;;;-10.29;100.00
54936;BME280;40838;50.676;7.838;2022-12-17T05:35:42;99056.72;;;-10.16;100.00
54936;BME280;40838;50.676;7.838;2022-12-17T05:38:29;99063.31;;;-9.84;100.00
54936;BME280;40838;50.676;7.838;2022-12-17T05:41:16;99062.56;;;-9.86;100.00
54936;BME280;40838;50.676;7.838;2022-12-17T05:44:00;99069.34;;;-9.85;100.00
54936;BME280;40838;50.676;7.838;2022-12-17T05:46:46;99067.34;;;-9.79;100.00
54936;BME280;40838;50.676;7.838;2022-12-17T05:49:30;99072.16;;;-9.75;100.00
54936;BME280;40838;50.676;7.838;2022-12-17T05:52:15;99073.34;;;-9.81;100.00
54936;BME280;40838;50.676;7.838;2022-12-17T05:54:59;99070.16;;;-9.84;100.00
54936;BME280;40838;50.676;7.838;2022-12-17T05:57:44;99079.75;;;-9.59;100.00
54936;BME280;40838;50.676;7.838;2022-12-17T06:00:28;99074.63;;;-9.73;100.00
54936;BME280;40838;50.676;7.838;2022-12-17T06:03:14;99091.22;;;-9.95;100.00
54936;BME280;40838;50.676;7.838;2022-12-17T06:05:58;99088.50;;;-9.63;100.00
54936;BME280;40838;50.676;7.838;2022-12-17T06:08:42;99084.31;;;-9.64;100.00
54936;BME280;40838;50.676;7.838;2022-12-17T06:11:32;99095.53;;;-9.52;100.00
54936;BME280;40838;50.676;7.838;2022-12-17T06:14:16;99094.34;;;-9.47;100.00
54936;BME280;40838;50.676;7.838;2022-12-17T06:17:01;99102.56;;;-9.42;100.00
54936;BME280;40838;50.676;7.838;2022-12-17T06:19:46;99106.75;;;-9.55;100.00
54936;BME280;40838;50.676;7.838;2022-12-17T06:22:30;99111.03;;;-9.84;100.00
54936;BME280;40838;50.676;7.838;2022-12-17T06:25:15;99112.13;;;-9.88;100.00
54936;BME280;40838;50.676;7.838;2022-12-17T06:27:59;99105.66;;;-9.79;100.00
54936;BME280;40838;50.676;7.838;2022-12-17T06:30:49;99108.72;;;-9.89;100.00
54936;BME280;40838;50.676;7.838;2022-12-17T06:33:33;99103.72;;;-9.90;100.00
54936;BME280;40838;50.676;7.838;2022-12-17T06:36:19;99119.69;;;-9.87;100.00
54936;BME280;40838;50.676;7.838;2022-12-17T06:39:03;99124.00;;;-9.73;100.00
54936;BME280;40838;50.676;7.838;2022-12-17T06:41:47;99127.56;;;-9.61;100.00
54936;BME280;40838;50.676;7.838;2022-12-17T06:44:31;99132.94;;;-9.51;100.00
54936;BME280;40838;50.676;7.838;2022-12-17T06:47:16;99124.44;;;-9.23;100.00
54936;BME280;40838;50.676;7.838;2022-12-17T06:50:01;99124.06;;;-9.17;100.00
54936;BME280;40838;50.676;7.838;2022-12-17T06:52:43;99126.44;;;-9.14;100.00
54936;BME280;40838;50.676;7.838;2022-12-17T06:55:28;99129.25;;;-9.19;100.00
54936;BME280;40838;50.676;7.838;2022-12-17T06:58:14;99142.97;;;-9.20;100.00
54936;BME280;40838;50.676;7.838;2022-12-17T07:00:58;99142.00;;;-9.04;100.00
54936;BME280;40838;50.676;7.838;2022-12-17T07:03:43;99139.28;;;-9.01;100.00
54936;BME280;40838;50.676;7.838;2022-12-17T07:06:27;99131.09;;;-9.06;100.00
54936;BME280;40838;50.676;7.838;2022-12-17T07:09:12;99143.38;;;-8.99;100.00
54936;BME280;40838;50.676;7.838;2022-12-17T07:11:56;99147.88;;;-9.02;100.00
54936;BME280;40838;50.676;7.838;2022-12-17T07:14:41;99144.75;;;-8.93;100.00
54936;BME280;40838;50.676;7.838;2022-12-17T07:17:27;99157.16;;;-9.01;100.00
54936;BME280;40838;50.676;7.838;2022-12-17T07:20:11;99157.63;;;-8.95;100.00
54936;BME280;40838;50.676;7.838;2022-12-17T07:22:56;99159.84;;;-9.03;100.00
54936;BME280;40838;50.676;7.838;2022-12-17T07:25:41;99161.00;;;-8.94;100.00
54936;BME280;40838;50.676;7.838;2022-12-17T07:28:25;99162.66;;;-8.93;100.00
54936;BME280;40838;50.676;7.838;2022-12-17T07:31:21;99163.09;;;-9.01;100.00
54936;BME280;40838;50.676;7.838;2022-12-17T07:34:14;99160.03;;;-9.06;100.00
54936;BME280;40838;50.676;7.838;2022-12-17T07:36:58;99172.00;;;-9.06;100.00
54936;BME280;40838;50.676;7.838;2022-12-17T07:39:42;99177.00;;;-9.19;100.00
54936;BME280;40838;50.676;7.838;2022-12-17T07:42:28;99177.00;;;-9.19;100.00
54936;BME280;40838;50.676;7.838;2022-12-17T07:45:13;99174.44;;;-9.19;100.00
54936;BME280;40838;50.676;7.838;2022-12-17T07:47:57;99186.53;;;-9.21;100.00
54936;BME280;40838;50.676;7.838;2022-12-17T07:50:41;99182.41;;;-9.24;100.00
54936;BME280;40838;50.676;7.838;2022-12-17T07:53:25;99183.88;;;-9.20;100.00
54936;BME280;40838;50.676;7.838;2022-12-17T07:56:10;99177.44;;;-9.13;100.00
54936;BME280;40838;50.676;7.838;2022-12-17T07:58:56;99188.53;;;-9.12;100.00
54936;BME280;40838;50.676;7.838;2022-12-17T08:01:40;99184.13;;;-9.24;100.00
54936;BME280;40838;50.676;7.838;2022-12-17T08:04:24;99189.22;;;-9.10;100.00
54936;BME280;40838;50.676;7.838;2022-12-17T08:07:09;99192.44;;;-9.06;100.00
54936;BME280;40838;50.676;7.838;2022-12-17T08:09:53;99187.66;;;-8.84;100.00
54936;BME280;40838;50.676;7.838;2022-12-17T08:12:37;99195.16;;;-8.95;100.00
54936;BME280;40838;50.676;7.838;2022-12-17T08:15:23;99194.50;;;-8.84;100.00
54936;BME280;40838;50.676;7.838;2022-12-17T08:18:07;99198.06;;;-8.73;100.00
54936;BME280;40838;50.676;7.838;2022-12-17T08:20:51;99193.13;;;-8.76;100.00
54936;BME280;40838;50.676;7.838;2022-12-17T08:23:35;99191.94;;;-8.70;100.00
54936;BME280;40838;50.676;7.838;2022-12-17T08:26:19;99196.72;;;-8.51;100.00
54936;BME280;40838;50.676;7.838;2022-12-17T08:29:03;99203.28;;;-8.47;100.00
54936;BME280;40838;50.676;7.838;2022-12-17T08:31:49;99205.81;;;-8.20;100.00
54936;BME280;40838;50.676;7.838;2022-12-17T08:34:33;99206.16;;;-8.12;100.00
54936;BME280;40838;50.676;7.838;2022-12-17T08:37:18;99203.06;;;-7.64;100.00
54936;BME280;40838;50.676;7.838;2022-12-17T08:40:02;99205.63;;;-7.00;100.00
54936;BME280;40838;50.676;7.838;2022-12-17T08:42:46;99206.25;;;-6.12;100.00
54936;BME280;40838;50.676;7.838;2022-12-17T08:45:30;99207.28;;;-4.99;100.00
54936;BME280;40838;50.676;7.838;2022-12-17T08:48:16;99217.13;;;-4.93;100.00
54936;BME280;40838;50.676;7.838;2022-12-17T08:51:03;99215.94;;;-4.23;100.00
54936;BME280;40838;50.676;7.838;2022-12-17T08:53:48;99216.50;;;-4.19;100.00
54936;BME280;40838;50.676;7.838;2022-12-17T08:56:32;99218.19;;;-3.65;100.00
54936;BME280;40838;50.676;7.838;2022-12-17T08:59:16;99214.53;;;-3.62;100.00
54936;BME280;40838;50.676;7.838;2022-12-17T09:02:00;99215.22;;;-2.18;100.00
54936;BME280;40838;50.676;7.838;2022-12-17T09:04:46;99225.94;;;-3.13;100.00
54936;BME280;40838;50.676;7.838;2022-12-17T09:07:31;99219.25;;;-3.47;100.00
54936;BME280;40838;50.676;7.838;2022-12-17T09:10:15;99219.97;;;-3.14;100.00
54936;BME280;40838;50.676;7.838;2022-12-17T09:13:00;99227.91;;;-3.27;100.00
54936;BME280;40838;50.676;7.838;2022-12-17T09:15:50;99219.50;;;-2.98;100.00
54936;BME280;40838;50.676;7.838;2022-12-17T09:18:31;99221.47;;;-4.27;100.00
54936;BME280;40838;50.676;7.838;2022-12-17T09:21:16;99227.50;;;-4.49;100.00
54936;BME280;40838;50.676;7.838;2022-12-17T09:24:15;99228.03;;;-4.35;100.00
54936;BME280;40838;50.676;7.838;2022-12-17T09:26:59;99234.09;;;-4.24;100.00
54936;BME280;40838;50.676;7.838;2022-12-17T09:29:44;99232.75;;;-4.51;100.00
54936;BME280;40838;50.676;7.838;2022-12-17T09:32:29;99234.75;;;-4.54;100.00
54936;BME280;40838;50.676;7.838;2022-12-17T09:35:13;99228.75;;;-4.32;100.00
54936;BME280;40838;50.676;7.838;2022-12-17T09:37:59;99240.25;;;-4.48;100.00
54936;BME280;40838;50.676;7.838;2022-12-17T09:40:47;99230.38;;;-3.67;100.00
54936;BME280;40838;50.676;7.838;2022-12-17T09:43:38;99229.47;;;-3.77;100.00
54936;BME280;40838;50.676;7.838;2022-12-17T09:46:31;99227.41;;;-3.21;100.00
54936;BME280;40838;50.676;7.838;2022-12-17T09:49:28;99233.44;;;-3.31;100.00
54936;BME280;40838;50.676;7.838;2022-12-17T09:52:26;99230.25;;;-3.24;100.00
54936;BME280;40838;50.676;7.838;2022-12-17T09:55:20;99222.41;;;-2.32;100.00
54936;BME280;40838;50.676;7.838;2022-12-17T09:58:18;99221.41;;;-2.60;100.00
54936;BME280;40838;50.676;7.838;2022-12-17T10:01:04;99221.13;;;-1.11;100.00
54936;BME280;40838;50.676;7.838;2022-12-17T10:03:48;99217.66;;;0.61;100.00
54936;BME280;40838;50.676;7.838;2022-12-17T10:06:34;99214.19;;;-0.55;100.00
54936;BME280;40838;50.676;7.838;2022-12-17T10:09:19;99225.97;;;-0.71;100.00
54936;BME280;40838;50.676;7.838;2022-12-17T10:12:12;99220.13;;;-0.45;100.00
54936;BME280;40838;50.676;7.838;2022-12-17T10:14:56;99211.53;;;-0.46;100.00
54936;BME280;40838;50.676;7.838;2022-12-17T10:17:41;99208.69;;;0.81;100.00
54936;BME280;40838;50.676;7.838;2022-12-17T10:20:31;99222.91;;;1.29;100.00
54936;BME280;40838;50.676;7.838;2022-12-17T10:23:23;99222.72;;;0.01;100.00
54936;BME280;40838;50.676;7.838;2022-12-17T10:26:08;99218.81;;;0.40;100.00
54936;BME280;40838;50.676;7.838;2022-12-17T10:29:02;99227.38;;;-0.49;100.00
54936;BME280;40838;50.676;7.838;2022-12-17T10:31:46;99217.06;;;-0.13;100.00
54936;BME280;40838;50.676;7.838;2022-12-17T10:34:34;99226.94;;;-1.09;100.00
54936;BME280;40838;50.676;7.838;2022-12-17T10:37:20;99225.56;;;-0.66;100.00
54936;BME280;40838;50.676;7.838;2022-12-17T10:40:17;99234.03;;;0.17;100.00
54936;BME280;40838;50.676;7.838;2022-12-17T10:43:23;99234.69;;;0.37;100.00
54936;BME280;40838;50.676;7.838;2022-12-17T10:46:08;99233.00;;;0.28;100.00
54936;BME280;40838;50.676;7.838;2022-12-17T10:49:04;99240.19;;;0.16;100.00
54936;BME280;40838;50.676;7.838;2022-12-17T10:51:48;99239.19;;;-0.36;100.00
54936;BME280;40838;50.676;7.838;2022-12-17T10:54:35;99231.66;;;-0.12;100.00
54936;BME280;40838;50.676;7.838;2022-12-17T10:57:23;99239.63;;;-0.41;100.00
54936;BME280;40838;50.676;7.838;2022-12-17T11:00:24;99235.72;;;-0.09;100.00
54936;BME280;40838;50.676;7.838;2022-12-17T11:03:23;99245.69;;;-0.32;100.00
54936;BME280;40838;50.676;7.838;2022-12-17T11:06:10;99247.38;;;-1.06;100.00
54936;BME280;40838;50.676;7.838;2022-12-17T11:08:58;99250.28;;;-0.72;100.00
54936;BME280;40838;50.676;7.838;2022-12-17T11:11:45;99257.59;;;-0.57;100.00
54936;BME280;40838;50.676;7.838;2022-12-17T11:14:31;99261.25;;;-1.73;100.00
54936;BME280;40838;50.676;7.838;2022-12-17T11:17:23;99245.25;;;0.00;100.00
54936;BME280;40838;50.676;7.838;2022-12-17T11:20:19;99256.38;;;-1.00;100.00
54936;BME280;40838;50.676;7.838;2022-12-17T11:23:11;99256.53;;;-0.37;100.00
54936;BME280;40838;50.676;7.838;2022-12-17T11:26:04;99253.31;;;-0.49;100.00
54936;BME280;40838;50.676;7.838;2022-12-17T11:28:50;99259.38;;;-0.58;100.00
54936;BME280;40838;50.676;7.838;2022-12-17T11:31:54;99261.75;;;0.35;100.00
54936;BME280;40838;50.676;7.838;2022-12-17T11:35:00;99256.72;;;0.33;100.00
54936;BME280;40838;50.676;7.838;2022-12-17T11:37:55;99254.59;;;0.73;100.00
54936;BME280;40838;50.676;7.838;2022-12-17T11:40:46;99247.97;;;0.34;100.00
54936;BME280;40838;50.676;7.838;2022-12-17T11:43:39;99235.72;;;0.09;100.00
54936;BME280;40838;50.676;7.838;2022-12-17T11:46:47;99245.66;;;-0.22;100.00
54936;BME280;40838;50.676;7.838;2022-12-17T11:49:40;99238.78;;;0.22;100.00
54936;BME280;40838;50.676;7.838;2022-12-17T11:52:33;99239.09;;;0.19;100.00
54936;BME280;40838;50.676;7.838;2022-12-17T11:55:30;99240.06;;;0.36;100.00
54936;BME280;40838;50.676;7.838;2022-12-17T11:58:22;99238.28;;;0.18;100.00
54936;BME280;40838;50.676;7.838;2022-12-17T12:01:16;99235.59;;;0.72;100.00
54936;BME280;40838;50.676;7.838;2022-12-17T12:04:13;99233.28;;;0.25;100.00
54936;BME280;40838;50.676;7.838;2022-12-17T12:07:05;99228.47;;;0.74;100.00
54936;BME280;40838;50.676;7.838;2022-12-17T12:09:59;99231.38;;;0.71;100.00
54936;BME280;40838;50.676;7.838;2022-12-17T12:13:08;99237.53;;;0.70;100.00
54936;BME280;40838;50.676;7.838;2022-12-17T12:16:03;99237.31;;;-0.44;100.00
54936;BME280;40838;50.676;7.838;2022-12-17T12:18:57;99240.41;;;-0.58;100.00
54936;BME280;40838;50.676;7.838;2022-12-17T12:21:53;99235.34;;;-0.60;100.00
54936;BME280;40838;50.676;7.838;2022-12-17T12:24:59;99244.38;;;-0.64;100.00
54936;BME280;40838;50.676;7.838;2022-12-17T12:27:54;99244.34;;;-0.54;100.00
54936;BME280;40838;50.676;7.838;2022-12-17T12:30:48;99245.81;;;-0.52;100.00
54936;BME280;40838;50.676;7.838;2022-12-17T12:33:43;99244.75;;;-0.59;100.00
54936;BME280;40838;50.676;7.838;2022-12-17T12:36:29;99238.75;;;-0.59;100.00
54936;BME280;40838;50.676;7.838;2022-12-17T12:39:30;99244.72;;;-0.49;100.00
54936;BME280;40838;50.676;7.838;2022-12-17T12:42:22;99247.50;;;-0.60;100.00
54936;BME280;40838;50.676;7.838;2022-12-17T12:45:29;99249.47;;;-0.44;100.00
54936;BME280;40838;50.676;7.838;2022-12-17T12:48:27;99252.75;;;-0.42;100.00
54936;BME280;40838;50.676;7.838;2022-12-17T12:51:19;99253.16;;;-0.47;100.00
54936;BME280;40838;50.676;7.838;2022-12-17T12:54:21;99252.31;;;-0.38;100.00
54936;BME280;40838;50.676;7.838;2022-12-17T12:57:24;99243.84;;;-0.40;100.00
54936;BME280;40838;50.676;7.838;2022-12-17T13:00:31;99246.69;;;-0.33;100.00
54936;BME280;40838;50.676;7.838;2022-12-17T13:03:30;99243.06;;;-0.78;100.00
54936;BME280;40838;50.676;7.838;2022-12-17T13:06:40;99243.63;;;-0.47;100.00
54936;BME280;40838;50.676;7.838;2022-12-17T13:09:19;99243.09;;;-0.32;100.00
54936;BME280;40838;50.676;7.838;2022-12-17T13:11:49;99245.00;;;-0.25;100.00
54936;BME280;40838;50.676;7.838;2022-12-17T13:14:23;99247.19;;;-0.30;100.00
54936;BME280;40838;50.676;7.838;2022-12-17T13:16:55;99240.47;;;-0.22;100.00
54936;BME280;40838;50.676;7.838;2022-12-17T13:19:35;99243.38;;;-0.53;100.00
54936;BME280;40838;50.676;7.838;2022-12-17T13:22:10;99241.31;;;-0.50;100.00
54936;BME280;40838;50.676;7.838;2022-12-17T13:24:37;99235.91;;;-0.11;100.00
54936;BME280;40838;50.676;7.838;2022-12-17T13:27:04;99237.50;;;-0.28;100.00
54936;BME280;40838;50.676;7.838;2022-12-17T13:29:51;99237.84;;;-0.40;100.00
54936;BME280;40838;50.676;7.838;2022-12-17T13:32:21;99239.66;;;-0.23;100.00
54936;BME280;40838;50.676;7.838;2022-12-17T13:34:59;99236.31;;;-0.15;100.00
54936;BME280;40838;50.676;7.838;2022-12-17T13:37:37;99244.66;;;-0.39;100.00
54936;BME280;40838;50.676;7.838;2022-12-17T13:40:20;99239.25;;;-0.46;100.00
54936;BME280;40838;50.676;7.838;2022-12-17T13:42:51;99237.47;;;-0.46;100.00
54936;BME280;40838;50.676;7.838;2022-12-17T13:45:21;99249.94;;;-0.59;100.00
54936;BME280;40838;50.676;7.838;2022-12-17T13:47:52;99240.72;;;-0.71;100.00
54936;BME280;40838;50.676;7.838;2022-12-17T13:50:23;99243.69;;;-0.94;100.00
54936;BME280;40838;50.676;7.838;2022-12-17T13:52:51;99248.59;;;-0.90;100.00
54936;BME280;40838;50.676;7.838;2022-12-17T13:55:20;99251.72;;;-0.87;100.00
54936;BME280;40838;50.676;7.838;2022-12-17T13:57:48;99249.00;;;-0.95;100.00
54936;BME280;40838;50.676;7.838;2022-12-17T14:00:21;99254.34;;;-1.06;100.00
54936;BME280;40838;50.676;7.838;2022-12-17T14:02:49;99253.78;;;-1.00;100.00
54936;BME280;40838;50.676;7.838;2022-12-17T14:05:30;99245.47;;;-1.04;100.00
54936;BME280;40838;50.676;7.838;2022-12-17T14:08:00;99255.59;;;-1.10;100.00
54936;BME280;40838;50.676;7.838;2022-12-17T14:10:28;99253.69;;;-1.18;100.00
54936;BME280;40838;50.676;7.838;2022-12-17T14:13:04;99250.84;;;-1.25;100.00
54936;BME280;40838;50.676;7.838;2022-12-17T14:15:31;99261.22;;;-1.25;100.00
54936;BME280;40838;50.676;7.838;2022-12-17T14:18:09;99266.81;;;-1.29;100.00
54936;BME280;40838;50.676;7.838;2022-12-17T14:20:43;99255.50;;;-1.38;100.00
54936;BME280;40838;50.676;7.838;2022-12-17T14:23:14;99259.72;;;-1.47;100.00
54936;BME280;40838;50.676;7.838;2022-12-17T14:25:46;99260.69;;;-1.48;100.00